Time;durP1;ratioP1;P1;durP2;ratioP2;P2;SDS_P1;SDS_P2;PMS_P1;PMS_P2;Temp;Humidity;BMP_temperature;BMP_pressure;BME280_temperature;BME280_humidity;BME280_pressure;Samples;Min_cycle;Max_cycle;Signal;HPM_P1;HPM_P2
2021/05/28 00:01:19;;;;;;;15.93;9.88;;;11.00;99.90;;;;;;4921279;29;20040;-95
2021/05/28 00:03:45;;;;;;;13.32;9.38;;;10.90;99.90;;;;;;4910928;29;20029;-94
2021/05/28 00:06:10;;;;;;;14.93;10.02;;;10.90;99.90;;;;;;4889806;29;20560;-94
2021/05/28 00:08:36;;;;;;;16.17;10.32;;;10.90;99.90;;;;;;4901800;29;20028;-94
2021/05/28 00:11:02;;;;;;;13.57;9.63;;;10.90;99.90;;;;;;4902820;29;20095;-92
2021/05/28 00:13:27;;;;;;;15.75;10.00;;;10.80;99.90;;;;;;4902776;29;20054;-92
2021/05/28 00:15:53;;;;;;;13.75;9.85;;;10.80;99.90;;;;;;4903066;29;20034;-95
2021/05/28 00:18:19;;;;;;;14.32;10.43;;;10.70;99.90;;;;;;4918023;29;20024;-94
2021/05/28 00:20:45;;;;;;;15.73;10.20;;;10.70;99.90;;;;;;4903910;29;20038;-93
2021/05/28 00:23:11;;;;;;;13.10;9.57;;;10.70;99.90;;;;;;4903311;29;20047;-96
2021/05/28 00:25:36;;;;;;;14.73;9.85;;;10.60;99.90;;;;;;4919925;29;20418;-93
2021/05/28 00:28:03;;;;;;;13.60;10.20;;;10.60;99.90;;;;;;4904830;29;20127;-94
2021/05/28 00:30:28;;;;;;;16.02;10.35;;;10.50;99.90;;;;;;4903902;29;20032;-92
2021/05/28 00:32:54;;;;;;;14.02;9.55;;;10.50;99.90;;;;;;4903705;29;20036;-92
2021/05/28 00:35:20;;;;;;;17.15;10.13;;;10.50;99.90;;;;;;4918565;29;20032;-93
2021/05/28 00:37:45;;;;;;;14.23;9.85;;;10.50;99.90;;;;;;4902935;29;20055;-94
2021/05/28 00:40:13;;;;;;;12.90;9.65;;;10.40;99.90;;;;;;4918790;29;20402;-93
2021/05/28 00:42:39;;;;;;;16.60;9.65;;;10.40;99.90;;;;;;4918800;29;20107;-93
2021/05/28 00:45:06;;;;;;;14.52;10.48;;;10.40;99.90;;;;;;4918435;29;20070;-95
2021/05/28 00:47:32;;;;;;;15.27;10.68;;;10.40;99.90;;;;;;4903610;29;20541;-94
2021/05/28 00:49:58;;;;;;;15.13;10.40;;;10.40;99.90;;;;;;4903366;29;20024;-94
2021/05/28 00:52:24;;;;;;;17.92;10.45;;;10.30;99.90;;;;;;4903333;29;20032;-95
2021/05/28 00:54:50;;;;;;;17.55;10.90;;;10.30;99.90;;;;;;4927275;29;20028;-94
2021/05/28 00:57:16;;;;;;;17.20;9.63;;;10.30;99.90;;;;;;4930853;29;20032;-95
2021/05/28 00:59:43;;;;;;;15.43;10.20;;;10.30;99.90;;;;;;4932504;29;20052;-95
2021/05/28 01:02:08;;;;;;;14.68;10.05;;;10.30;99.90;;;;;;4930548;29;20055;-95
2021/05/28 01:04:35;;;;;;;16.17;9.85;;;10.30;99.90;;;;;;4916364;29;20032;-96
2021/05/28 01:07:00;;;;;;;13.05;8.95;;;10.30;99.90;;;;;;4930591;29;20052;-96
2021/05/28 01:12:43;;;;;;;13.23;9.80;;;10.20;99.90;;;;;;4934532;23;20068;-95
2021/05/28 01:15:10;;;;;;;12.93;9.38;;;10.20;99.90;;;;;;4897664;29;20033;-95
2021/05/28 01:17:36;;;;;;;13.43;9.95;;;10.20;99.90;;;;;;4897750;29;20029;-95
2021/05/28 01:20:05;;;;;;;14.00;9.60;;;10.20;99.90;;;;;;4910883;29;20041;-95
2021/05/28 01:22:30;;;;;;;12.60;9.18;;;10.20;99.90;;;;;;4910047;29;20052;-95
2021/05/28 01:25:00;;;;;;;10.75;8.07;;;10.20;99.90;;;;;;4893088;29;20483;-96
2021/05/28 01:27:27;;;;;;;15.88;9.77;;;10.20;99.90;;;;;;4891428;29;20036;-93
2021/05/28 01:29:54;;;;;;;13.88;9.35;;;10.20;99.90;;;;;;4890395;29;20028;-94
2021/05/28 01:32:20;;;;;;;15.30;9.85;;;10.10;99.90;;;;;;4890766;29;20050;-96
2021/05/28 01:34:47;;;;;;;17.60;10.25;;;10.10;99.90;;;;;;4907268;29;20494;-95
2021/05/28 01:37:14;;;;;;;14.80;9.85;;;10.10;99.90;;;;;;4890998;29;20053;-95
2021/05/28 01:39:59;;;;;;;14.82;10.07;;;10.10;99.90;;;;;;4890854;29;20040;-94
2021/05/28 01:42:25;;;;;;;13.50;8.70;;;10.10;99.90;;;;;;4889380;29;20088;-96
2021/05/28 01:44:53;;;;;;;14.63;9.57;;;10.10;99.90;;;;;;4872883;29;20269;-94
2021/05/28 01:47:20;;;;;;;13.07;9.38;;;10.10;99.90;;;;;;4887007;29;20029;-95
2021/05/28 01:49:46;;;;;;;13.55;9.10;;;10.10;99.90;;;;;;4869268;29;20042;-95
2021/05/28 01:52:13;;;;;;;12.15;9.70;;;10.00;99.90;;;;;;4884107;29;20025;-95
2021/05/28 01:54:39;;;;;;;14.05;9.52;;;10.00;99.90;;;;;;4884108;29;20028;-95
2021/05/28 01:57:07;;;;;;;14.18;9.20;;;10.00;99.90;;;;;;4883802;29;20025;-96
2021/05/28 01:59:32;;;;;;;13.38;8.57;;;10.00;99.90;;;;;;4885093;29;20025;-95
2021/05/28 02:01:59;;;;;;;13.40;9.07;;;9.90;99.90;;;;;;4889537;29;20053;-96
2021/05/28 02:04:25;;;;;;;12.13;8.70;;;9.90;99.90;;;;;;4893103;29;20044;-95
2021/05/28 02:06:52;;;;;;;16.25;9.15;;;9.90;99.90;;;;;;4894878;29;20037;-95
2021/05/28 02:09:18;;;;;;;14.95;9.00;;;9.90;99.90;;;;;;4895267;29;20025;-95
2021/05/28 02:11:44;;;;;;;14.10;9.35;;;9.80;99.90;;;;;;4905484;29;20075;-94
2021/05/28 02:14:09;;;;;;;13.10;8.52;;;9.80;99.90;;;;;;4905442;29;20064;-94
2021/05/28 02:16:36;;;;;;;15.45;10.43;;;9.80;99.90;;;;;;4924886;29;20059;-95
2021/05/28 02:19:02;;;;;;;15.20;9.45;;;9.80;99.90;;;;;;4917578;29;20039;-95
2021/05/28 02:21:29;;;;;;;10.65;8.23;;;9.80;99.90;;;;;;4907473;29;20043;-95
2021/05/28 02:23:55;;;;;;;12.90;9.93;;;9.80;99.90;;;;;;4906838;29;20039;-94
2021/05/28 02:26:21;;;;;;;14.70;10.20;;;9.80;99.90;;;;;;4907002;29;20080;-96
2021/05/28 02:28:46;;;;;;;13.40;9.60;;;9.80;99.90;;;;;;4907002;29;20471;-95
2021/05/28 02:31:12;;;;;;;13.40;9.95;;;9.80;99.90;;;;;;4924285;29;20485;-96
2021/05/28 02:33:38;;;;;;;14.88;9.38;;;9.80;99.90;;;;;;4911309;29;20047;-96
2021/05/28 02:36:07;;;;;;;13.23;9.80;;;9.70;99.90;;;;;;4910105;29;20056;-96
2021/05/28 02:38:33;;;;;;;15.70;10.07;;;9.70;99.90;;;;;;4908237;29;20028;-96
2021/05/28 02:41:00;;;;;;;14.32;10.20;;;9.70;99.90;;;;;;4906177;29;20179;-95
2021/05/28 02:43:26;;;;;;;14.25;10.35;;;9.70;99.90;;;;;;4905071;29;20026;-95
2021/05/28 02:45:52;;;;;;;14.85;9.90;;;9.70;99.90;;;;;;4904909;29;20029;-94
2021/05/28 02:48:19;;;;;;;16.13;10.48;;;9.60;99.90;;;;;;4915310;29;20035;-94
2021/05/28 02:50:45;;;;;;;17.38;10.90;;;9.60;99.90;;;;;;4905084;29;20051;-93
2021/05/28 02:53:11;;;;;;;14.98;10.43;;;9.60;99.90;;;;;;4904574;29;20035;-94
2021/05/28 02:55:38;;;;;;;13.35;9.85;;;9.50;99.90;;;;;;4921768;29;20028;-96
2021/05/28 02:58:06;;;;;;;13.82;9.65;;;9.50;99.90;;;;;;4905516;29;20055;-95
2021/05/28 03:00:31;;;;;;;14.15;10.15;;;9.50;99.90;;;;;;4905209;29;20498;-94
2021/05/28 03:02:57;;;;;;;15.20;10.77;;;9.50;99.90;;;;;;4904906;29;20032;-94
2021/05/28 03:05:23;;;;;;;14.75;10.23;;;9.40;99.90;;;;;;4904954;29;20087;-94
2021/05/28 03:07:49;;;;;;;15.38;10.13;;;9.40;99.90;;;;;;4905231;29;20020;-95
2021/05/28 03:10:15;;;;;;;17.27;9.77;;;9.40;99.90;;;;;;4905181;29;20399;-95
2021/05/28 03:12:41;;;;;;;14.25;10.30;;;9.40;99.90;;;;;;4904507;29;20044;-96
2021/05/28 03:15:07;;;;;;;15.70;10.13;;;9.40;99.90;;;;;;4906235;29;20043;-95
2021/05/28 03:17:35;;;;;;;15.13;10.20;;;9.40;99.90;;;;;;4905959;29;20039;-93
2021/05/28 03:20:04;;;;;;;14.20;9.77;;;9.40;99.90;;;;;;4906022;29;20032;-95
2021/05/28 03:22:31;;;;;;;12.77;9.60;;;9.40;99.90;;;;;;4903880;29;20120;-94
2021/05/28 03:24:58;;;;;;;16.00;9.98;;;9.40;99.90;;;;;;4904053;29;20405;-94
2021/05/28 03:27:24;;;;;;;19.13;10.35;;;9.40;99.90;;;;;;4906800;29;20028;-92
2021/05/28 03:29:49;;;;;;;16.00;10.23;;;9.30;99.90;;;;;;4905286;29;20488;-94
2021/05/28 03:32:19;;;;;;;14.32;10.45;;;9.30;99.90;;;;;;4922844;29;20028;-95
2021/05/28 03:34:44;;;;;;;14.95;9.98;;;9.30;99.90;;;;;;4911161;29;20028;-96
2021/05/28 03:37:11;;;;;;;15.52;10.45;;;9.30;99.90;;;;;;4906480;29;20087;-94
2021/05/28 03:39:41;;;;;;;17.55;10.80;;;9.20;99.90;;;;;;4906194;29;20035;-96
2021/05/28 03:42:06;;;;;;;15.48;10.80;;;9.20;99.90;;;;;;4906885;29;20055;-94
2021/05/28 03:44:32;;;;;;;21.98;12.63;;;9.20;99.90;;;;;;4906615;29;20036;-93
2021/05/28 03:46:58;;;;;;;19.08;12.43;;;9.20;99.90;;;;;;4903077;29;20087;-91
2021/05/28 03:49:23;;;;;;;17.70;12.43;;;9.20;99.90;;;;;;4904090;29;20032;-92
2021/05/28 03:51:49;;;;;;;17.05;11.68;;;9.20;99.90;;;;;;4910418;29;20025;-93
2021/05/28 03:54:15;;;;;;;16.80;10.10;;;9.20;99.90;;;;;;4914140;29;20088;-96
2021/05/28 03:56:41;;;;;;;17.50;11.85;;;9.20;99.90;;;;;;4910422;29;20165;-92
2021/05/28 03:59:06;;;;;;;16.33;11.85;;;9.30;99.90;;;;;;4908016;29;20032;-94
2021/05/28 04:01:32;;;;;;;18.83;11.82;;;9.20;99.90;;;;;;4904718;29;20037;-95
2021/05/28 04:03:58;;;;;;;17.67;11.68;;;9.30;99.90;;;;;;4904306;29;20047;-95
2021/05/28 04:06:23;;;;;;;16.67;12.00;;;9.20;99.90;;;;;;4904948;29;20036;-95
2021/05/28 04:08:49;;;;;;;16.75;11.45;;;9.30;99.90;;;;;;4903734;29;20035;-95
2021/05/28 04:11:15;;;;;;;23.52;12.35;;;9.20;99.90;;;;;;4904202;29;20052;-95
2021/05/28 04:13:40;;;;;;;22.08;13.48;;;9.30;99.90;;;;;;4904828;29;20487;-95
2021/05/28 04:16:06;;;;;;;18.75;13.05;;;9.30;99.90;;;;;;4904605;29;20114;-95
2021/05/28 04:18:33;;;;;;;18.95;12.10;;;9.30;99.90;;;;;;4903971;29;20039;-96
2021/05/28 04:20:58;;;;;;;18.55;12.25;;;9.30;99.90;;;;;;4904162;29;20120;-96
2021/05/28 04:23:24;;;;;;;18.67;12.20;;;9.20;99.90;;;;;;4903589;29;20059;-94
2021/05/28 04:25:50;;;;;;;19.33;12.77;;;9.20;99.90;;;;;;4903936;29;20079;-95
2021/05/28 04:28:16;;;;;;;20.42;12.90;;;9.30;99.90;;;;;;4903849;29;20032;-96
2021/05/28 04:30:42;;;;;;;17.85;12.80;;;9.20;99.90;;;;;;4903826;29;20032;-94
2021/05/28 04:33:08;;;;;;;21.27;14.13;;;9.30;99.90;;;;;;4903972;29;20024;-95
2021/05/28 04:35:34;;;;;;;20.10;13.25;;;9.20;99.90;;;;;;4903031;29;20024;-95
2021/05/28 04:37:59;;;;;;;20.27;13.30;;;9.30;99.90;;;;;;4903715;29;20023;-94
2021/05/28 04:40:28;;;;;;;21.45;12.52;;;9.30;99.90;;;;;;4903707;29;20024;-96
2021/05/28 04:42:54;;;;;;;20.13;12.88;;;9.30;99.90;;;;;;4903632;29;20032;-92
2021/05/28 04:45:20;;;;;;;18.83;12.77;;;9.40;99.90;;;;;;4920596;29;20104;-93
2021/05/28 04:47:46;;;;;;;19.98;12.80;;;9.40;99.90;;;;;;4904574;29;20500;-92
2021/05/28 04:50:12;;;;;;;17.90;12.52;;;9.40;99.90;;;;;;4910033;29;20035;-93
2021/05/28 04:52:41;;;;;;;18.42;12.75;;;9.50;99.90;;;;;;4913387;29;20032;-93
2021/05/28 04:55:08;;;;;;;14.30;10.55;;;9.50;99.90;;;;;;4911534;29;20028;-93
2021/05/28 04:57:33;;;;;;;19.77;11.45;;;9.40;99.90;;;;;;4909530;29;20040;-95
2021/05/28 04:59:59;;;;;;;17.15;11.32;;;9.40;99.90;;;;;;4911173;29;20047;-95
2021/05/28 05:02:26;;;;;;;19.13;12.38;;;9.30;99.90;;;;;;4911580;29;20084;-94
2021/05/28 05:04:52;;;;;;;14.57;10.57;;;9.30;99.90;;;;;;4908887;29;20076;-92
2021/05/28 05:07:20;;;;;;;23.05;13.75;;;9.40;99.90;;;;;;4901602;29;20084;-92
2021/05/28 05:09:46;;;;;;;21.73;13.32;;;9.40;99.90;;;;;;4901305;29;20028;-93
2021/05/28 05:12:12;;;;;;;19.23;12.60;;;9.40;99.90;;;;;;4901813;29;20099;-93
2021/05/28 05:14:37;;;;;;;20.73;14.23;;;9.50;99.90;;;;;;4902152;29;20131;-94
2021/05/28 05:17:03;;;;;;;19.23;13.68;;;9.50;99.90;;;;;;4901339;29;20119;-92
2021/05/28 05:19:32;;;;;;;27.38;14.32;;;9.60;99.90;;;;;;4900265;29;20040;-94
2021/05/28 05:21:57;;;;;;;21.40;13.18;;;9.60;99.90;;;;;;4900166;29;20165;-93
2021/05/28 05:24:23;;;;;;;18.05;12.77;;;9.70;99.90;;;;;;4900600;29;20470;-92
2021/05/28 05:26:51;;;;;;;25.63;14.40;;;9.70;99.90;;;;;;4900311;29;20103;-92
2021/05/28 05:29:17;;;;;;;22.15;13.95;;;9.80;99.90;;;;;;4900855;29;20035;-93
2021/05/28 05:31:43;;;;;;;24.02;13.93;;;9.80;99.90;;;;;;4900917;29;20032;-93
2021/05/28 05:34:09;;;;;;;15.57;11.52;;;9.90;99.90;;;;;;4905274;29;20071;-93
2021/05/28 05:36:35;;;;;;;20.60;13.23;;;9.90;99.90;;;;;;4922113;29;20021;-92
2021/05/28 05:39:04;;;;;;;22.65;13.52;;;9.90;99.90;;;;;;4903840;29;20036;-93
2021/05/28 05:41:30;;;;;;;25.10;14.77;;;10.00;99.90;;;;;;4896886;29;20020;-93
2021/05/28 05:43:56;;;;;;;23.85;14.43;;;10.00;99.90;;;;;;4901006;29;20517;-93
2021/05/28 05:46:23;;;;;;;21.13;14.15;;;10.10;99.90;;;;;;4901274;29;20486;-93
2021/05/28 05:48:49;;;;;;;21.92;14.32;;;10.10;99.90;;;;;;4900998;29;20028;-94
2021/05/28 05:51:14;;;;;;;28.58;13.93;;;10.10;99.90;;;;;;4900936;29;20047;-93
2021/05/28 05:53:40;;;;;;;20.85;13.23;;;10.20;99.90;;;;;;4917449;29;20016;-93
2021/05/28 05:56:06;;;;;;;18.95;13.25;;;10.20;99.90;;;;;;4901681;29;20087;-93
2021/05/28 05:58:31;;;;;;;22.40;14.38;;;10.30;99.90;;;;;;4900832;29;20486;-92
2021/05/28 06:00:57;;;;;;;22.02;14.90;;;10.30;99.90;;;;;;4901456;29;20040;-93
2021/05/28 06:03:23;;;;;;;20.15;14.38;;;10.40;99.90;;;;;;4900665;29;20016;-91
2021/05/28 06:05:51;;;;;;;26.33;15.77;;;10.40;99.90;;;;;;4900633;29;20135;-92
2021/05/28 06:08:17;;;;;;;23.13;15.45;;;10.50;99.90;;;;;;4900875;29;20115;-93
2021/05/28 06:10:43;;;;;;;25.13;15.27;;;10.60;99.90;;;;;;4900689;29;20079;-93
2021/05/28 06:13:09;;;;;;;21.88;14.45;;;10.60;99.90;;;;;;4900625;29;20036;-94
2021/05/28 06:15:35;;;;;;;22.38;13.82;;;10.60;99.90;;;;;;4900496;29;20020;-93
2021/05/28 06:18:01;;;;;;;22.50;14.90;;;10.70;99.90;;;;;;4903984;29;20055;-94
2021/05/28 06:20:28;;;;;;;23.60;14.30;;;10.80;99.90;;;;;;4907350;29;20020;-94
2021/05/28 06:22:55;;;;;;;19.95;14.63;;;10.80;99.90;;;;;;4906013;29;20055;-93
2021/05/28 06:25:21;;;;;;;20.00;13.98;;;10.90;99.90;;;;;;4900471;29;20046;-93
2021/05/28 06:27:47;;;;;;;24.05;14.77;;;10.90;99.90;;;;;;4900370;29;20044;-94
2021/05/28 06:30:13;;;;;;;25.63;15.90;;;11.00;99.90;;;;;;4921212;29;20032;-92
2021/05/28 06:32:39;;;;;;;25.15;15.77;;;11.00;99.90;;;;;;4906889;29;20031;-94
2021/05/28 06:35:05;;;;;;;21.75;15.90;;;11.00;99.90;;;;;;4905392;29;20088;-93
2021/05/28 06:37:31;;;;;;;21.05;14.55;;;11.10;99.90;;;;;;4904983;29;20035;-94
2021/05/28 06:39:57;;;;;;;23.27;14.32;;;11.10;99.90;;;;;;4905874;29;20028;-93
2021/05/28 06:42:23;;;;;;;24.42;15.25;;;11.10;99.90;;;;;;4909386;29;20111;-93
2021/05/28 06:44:48;;;;;;;22.15;15.07;;;11.20;99.90;;;;;;4903634;29;20032;-94
2021/05/28 06:47:16;;;;;;;23.27;15.88;;;11.20;99.90;;;;;;4904802;29;20088;-94
2021/05/28 06:49:42;;;;;;;19.05;12.90;;;11.20;99.90;;;;;;4905090;29;20638;-93
2021/05/28 06:52:09;;;;;;;28.85;15.63;;;11.30;99.90;;;;;;4903867;29;20020;-94
2021/05/28 06:54:34;;;;;;;25.95;15.88;;;11.30;99.90;;;;;;4907339;29;20024;-96
2021/05/28 06:57:00;;;;;;;24.70;13.93;;;11.40;99.90;;;;;;4904786;29;20039;-94
2021/05/28 06:59:28;;;;;;;25.08;16.05;;;11.40;99.90;;;;;;4904641;29;20486;-94
2021/05/28 07:01:55;;;;;;;22.00;14.98;;;11.50;99.90;;;;;;4905215;29;20040;-94
2021/05/28 07:04:21;;;;;;;26.23;16.38;;;11.60;99.90;;;;;;4909284;29;20040;-92
2021/05/28 07:06:47;;;;;;;26.42;16.75;;;11.60;99.90;;;;;;4905757;29;20056;-95
2021/05/28 07:09:12;;;;;;;33.65;17.55;;;11.60;99.90;;;;;;4906090;29;20028;-95
2021/05/28 07:11:38;;;;;;;25.77;16.00;;;11.70;99.90;;;;;;4907334;29;20070;-94
2021/05/28 07:14:04;;;;;;;24.63;16.40;;;11.70;99.90;;;;;;4904171;29;20390;-95
2021/05/28 07:16:30;;;;;;;25.17;16.50;;;11.80;99.90;;;;;;4902241;29;20417;-93
2021/05/28 07:18:56;;;;;;;24.00;15.75;;;11.80;99.90;;;;;;4919149;29;20115;-94
2021/05/28 07:21:26;;;;;;;23.10;15.88;;;11.90;99.90;;;;;;4905640;29;20050;-93
2021/05/28 07:23:52;;;;;;;23.60;16.67;;;12.00;99.90;;;;;;4903148;29;20056;-92
2021/05/28 07:26:18;;;;;;;20.13;14.32;;;12.10;99.90;;;;;;4905367;29;20040;-94
2021/05/28 07:28:44;;;;;;;19.08;12.82;;;12.10;99.90;;;;;;4905005;29;20048;-93
2021/05/28 07:31:10;;;;;;;24.65;16.40;;;12.20;99.90;;;;;;4908963;29;20062;-95
2021/05/28 07:33:38;;;;;;;26.73;16.23;;;12.30;99.90;;;;;;4924755;29;20056;-92
2021/05/28 07:36:09;;;;;;;25.83;16.67;;;12.40;99.90;;;;;;4908694;29;20038;-94
2021/05/28 07:38:36;;;;;;;22.95;14.27;;;12.50;99.90;;;;;;4923167;29;20545;-93
2021/05/28 07:41:03;;;;;;;25.92;17.30;;;12.60;99.90;;;;;;4902976;29;20504;-93
2021/05/28 07:43:28;;;;;;;20.05;13.23;;;12.60;99.90;;;;;;4905517;29;20026;-93
2021/05/28 07:45:54;;;;;;;27.25;16.55;;;12.70;99.90;;;;;;4902989;29;20044;-91
2021/05/28 07:48:20;;;;;;;24.88;16.27;;;12.80;99.90;;;;;;4903369;29;20055;-90
2021/05/28 07:50:48;;;;;;;25.80;15.77;;;12.90;99.90;;;;;;4902832;29;20123;-92
2021/05/28 07:53:24;;;;;;;23.40;16.92;;;13.00;99.90;;;;;;4905887;29;20032;-93
2021/05/28 07:55:51;;;;;;;25.90;16.50;;;13.10;99.90;;;;;;4905695;29;20024;-93
2021/05/28 07:58:17;;;;;;;25.67;16.67;;;13.20;99.90;;;;;;4901435;29;20156;-95
2021/05/28 08:00:43;;;;;;;30.52;18.92;;;13.30;99.90;;;;;;4901408;29;20466;-93
2021/05/28 08:03:09;;;;;;;23.05;14.85;;;13.30;99.90;;;;;;4902315;29;20083;-95
2021/05/28 08:05:35;;;;;;;27.70;18.38;;;13.40;99.90;;;;;;4902055;29;20055;-94
2021/05/28 08:08:02;;;;;;;31.33;20.58;;;13.40;99.90;;;;;;4902821;29;20056;-94
2021/05/28 08:10:29;;;;;;;31.40;19.17;;;13.50;99.90;;;;;;4919099;29;20032;-94
2021/05/28 08:12:56;;;;;;;27.40;17.98;;;13.70;99.90;;;;;;4901675;29;20036;-94
2021/05/28 08:15:23;;;;;;;27.63;18.20;;;13.70;99.90;;;;;;4901500;29;20066;-95
2021/05/28 08:17:48;;;;;;;25.30;17.52;;;13.70;99.90;;;;;;4900842;29;20032;-96
2021/05/28 08:20:15;;;;;;;29.00;17.95;;;13.80;99.90;;;;;;4901570;29;20044;-95
2021/05/28 08:22:43;;;;;;;26.20;15.60;;;13.80;99.90;;;;;;4901063;29;20095;-92
2021/05/28 08:25:09;;;;;;;25.80;16.52;;;13.90;99.90;;;;;;4901442;29;20582;-93
2021/05/28 08:27:35;;;;;;;30.70;17.70;;;14.00;99.90;;;;;;4900687;29;20032;-91
2021/05/28 08:30:01;;;;;;;25.30;16.20;;;14.10;99.90;;;;;;4901840;29;20039;-96
2021/05/28 08:32:26;;;;;;;27.40;16.40;;;14.20;99.90;;;;;;4903765;29;20038;-92
2021/05/28 08:34:55;;;;;;;26.65;16.70;;;14.30;99.90;;;;;;4900874;29;20035;-93
2021/05/28 08:37:21;;;;;;;27.02;17.35;;;14.40;99.90;;;;;;4900578;29;20028;-90
2021/05/28 08:39:51;;;;;;;22.80;15.35;;;14.50;99.90;;;;;;4899458;29;20040;-91
2021/05/28 08:42:31;;;;;;;24.80;15.75;;;14.60;99.90;;;;;;4899870;29;20027;-91
2021/05/28 08:45:00;;;;;;;24.58;15.45;;;14.80;99.90;;;;;;4899394;29;20091;-94
2021/05/28 08:47:36;;;;;;;25.35;15.57;;;14.80;99.90;;;;;;4898684;29;20478;-92
2021/05/28 08:50:07;;;;;;;23.55;15.65;;;15.00;99.90;;;;;;4900458;29;20040;-90
2021/05/28 08:52:38;;;;;;;21.88;14.95;;;15.10;99.90;;;;;;4901293;29;20071;-94
